sensor_id;sensor_type;location;lat;lon;timestamp;pressure;altitude;pressure_sealevel;temperature;humidity
77112;BME280;66064;50.226;14.344;2024-03-29T00:02:12;98171.31;;;6.56;77.52
77112;BME280;66064;50.226;14.344;2024-03-29T00:04:39;98171.38;;;6.65;77.40
77112;BME280;66064;50.226;14.344;2024-03-29T00:07:05;98176.66;;;6.68;76.82
77112;BME280;66064;50.226;14.344;2024-03-29T00:09:32;98179.28;;;6.62;77.17
77112;BME280;66064;50.226;14.344;2024-03-29T00:11:58;98169.56;;;6.55;77.18
77112;BME280;66064;50.226;14.344;2024-03-29T00:14:24;98204.81;;;6.57;77.26
77112;BME280;66064;50.226;14.344;2024-03-29T00:16:52;98191.59;;;6.58;76.94
77112;BME280;66064;50.226;14.344;2024-03-29T00:19:18;98192.47;;;6.54;77.14
77112;BME280;66064;50.226;14.344;2024-03-29T00:21:44;98198.59;;;6.46;77.71
77112;BME280;66064;50.226;14.344;2024-03-29T00:24:10;98195.00;;;6.31;77.99
77112;BME280;66064;50.226;14.344;2024-03-29T00:26:36;98187.88;;;6.21;78.78
77112;BME280;66064;50.226;14.344;2024-03-29T00:29:02;98196.56;;;6.02;79.22
77112;BME280;66064;50.226;14.344;2024-03-29T00:31:29;98200.06;;;5.95;79.79
77112;BME280;66064;50.226;14.344;2024-03-29T00:33:55;98206.28;;;6.05;79.97
77112;BME280;66064;50.226;14.344;2024-03-29T00:36:21;98211.66;;;6.20;78.79
77112;BME280;66064;50.226;14.344;2024-03-29T00:38:47;98212.50;;;6.17;78.94
77112;BME280;66064;50.226;14.344;2024-03-29T00:41:13;98220.31;;;5.94;79.37
77112;BME280;66064;50.226;14.344;2024-03-29T00:43:38;98219.41;;;5.91;80.05
77112;BME280;66064;50.226;14.344;2024-03-29T00:46:04;98226.31;;;5.80;80.12
77112;BME280;66064;50.226;14.344;2024-03-29T00:48:30;98230.56;;;5.61;81.16
77112;BME280;66064;50.226;14.344;2024-03-29T00:50:56;98220.81;;;5.52;81.42
77112;BME280;66064;50.226;14.344;2024-03-29T00:53:22;98233.81;;;5.30;81.82
77112;BME280;66064;50.226;14.344;2024-03-29T00:55:48;98233.66;;;5.14;83.13
77112;BME280;66064;50.226;14.344;2024-03-29T00:58:14;98236.41;;;5.28;83.06
77112;BME280;66064;50.226;14.344;2024-03-29T01:00:40;98215.22;;;5.16;83.00
77112;BME280;66064;50.226;14.344;2024-03-29T01:03:06;98227.50;;;5.15;83.16
77112;BME280;66064;50.226;14.344;2024-03-29T01:05:32;98227.38;;;5.02;83.98
77112;BME280;66064;50.226;14.344;2024-03-29T01:07:58;98236.13;;;5.01;84.24
77112;BME280;66064;50.226;14.344;2024-03-29T01:10:24;98231.03;;;5.16;83.37
77112;BME280;66064;50.226;14.344;2024-03-29T01:12:50;98230.28;;;5.31;82.98
77112;BME280;66064;50.226;14.344;2024-03-29T01:15:16;98247.13;;;5.43;81.86
77112;BME280;66064;50.226;14.344;2024-03-29T01:17:42;98224.34;;;5.51;80.65
77112;BME280;66064;50.226;14.344;2024-03-29T01:20:09;98228.69;;;5.48;81.15
77112;BME280;66064;50.226;14.344;2024-03-29T01:22:34;98226.00;;;5.43;81.34
77112;BME280;66064;50.226;14.344;2024-03-29T01:25:00;98225.84;;;5.25;82.18
77112;BME280;66064;50.226;14.344;2024-03-29T01:27:28;98237.38;;;5.38;81.63
77112;BME280;66064;50.226;14.344;2024-03-29T01:29:55;98237.22;;;5.22;81.85
77112;BME280;66064;50.226;14.344;2024-03-29T01:32:20;98237.06;;;5.06;82.56
77112;BME280;66064;50.226;14.344;2024-03-29T01:34:46;98237.06;;;5.06;82.93
77112;BME280;66064;50.226;14.344;2024-03-29T01:37:12;98252.75;;;4.93;83.39
77112;BME280;66064;50.226;14.344;2024-03-29T01:39:38;98255.13;;;4.72;84.47
77112;BME280;66064;50.226;14.344;2024-03-29T01:42:04;98247.94;;;4.61;86.62
77112;BME280;66064;50.226;14.344;2024-03-29T01:44:30;98242.38;;;4.36;87.74
77112;BME280;66064;50.226;14.344;2024-03-29T01:46:56;98266.78;;;4.26;89.50
77112;BME280;66064;50.226;14.344;2024-03-29T01:49:22;98262.22;;;4.13;90.58
77112;BME280;66064;50.226;14.344;2024-03-29T01:51:48;98266.38;;;3.97;91.08
77112;BME280;66064;50.226;14.344;2024-03-29T01:54:15;98283.69;;;3.83;92.31
77112;BME280;66064;50.226;14.344;2024-03-29T01:56:41;98270.38;;;3.74;91.48
77112;BME280;66064;50.226;14.344;2024-03-29T01:59:13;98269.28;;;3.61;92.79
77112;BME280;66064;50.226;14.344;2024-03-29T02:01:40;98270.88;;;3.51;92.99
77112;BME280;66064;50.226;14.344;2024-03-29T02:04:06;98261.97;;;3.43;92.67
77112;BME280;66064;50.226;14.344;2024-03-29T02:06:33;98286.47;;;3.39;93.36
77112;BME280;66064;50.226;14.344;2024-03-29T02:08:59;98283.84;;;3.41;94.15
77112;BME280;66064;50.226;14.344;2024-03-29T02:11:25;98291.47;;;3.27;94.61
77112;BME280;66064;50.226;14.344;2024-03-29T02:13:51;98296.63;;;3.21;94.84
77112;BME280;66064;50.226;14.344;2024-03-29T02:16:18;98299.84;;;3.06;95.88
77112;BME280;66064;50.226;14.344;2024-03-29T02:18:46;98292.56;;;2.92;95.38
77112;BME280;66064;50.226;14.344;2024-03-29T02:21:11;98297.81;;;2.92;96.60
77112;BME280;66064;50.226;14.344;2024-03-29T02:23:43;98293.38;;;2.89;96.69
77112;BME280;66064;50.226;14.344;2024-03-29T02:26:12;98281.66;;;2.72;96.94
77112;BME280;66064;50.226;14.344;2024-03-29T02:28:39;98288.66;;;2.73;97.80
77112;BME280;66064;50.226;14.344;2024-03-29T02:31:05;98281.41;;;2.61;97.30
77112;BME280;66064;50.226;14.344;2024-03-29T02:33:31;98288.38;;;2.61;98.34
77112;BME280;66064;50.226;14.344;2024-03-29T02:35:56;98288.31;;;2.56;98.78
77112;BME280;66064;50.226;14.344;2024-03-29T02:38:23;98287.41;;;2.54;99.07
77112;BME280;66064;50.226;14.344;2024-03-29T02:40:49;98283.72;;;2.47;98.84
77112;BME280;66064;50.226;14.344;2024-03-29T02:43:16;98268.63;;;2.36;98.68
77112;BME280;66064;50.226;14.344;2024-03-29T02:45:43;98272.41;;;2.50;100.00
77112;BME280;66064;50.226;14.344;2024-03-29T02:48:10;98275.50;;;2.31;99.17
77112;BME280;66064;50.226;14.344;2024-03-29T02:50:36;98273.69;;;2.27;100.00
77112;BME280;66064;50.226;14.344;2024-03-29T02:53:02;98270.69;;;2.11;99.50
77112;BME280;66064;50.226;14.344;2024-03-29T02:55:28;98266.00;;;1.98;100.00
77112;BME280;66064;50.226;14.344;2024-03-29T02:57:54;98278.28;;;1.99;100.00
77112;BME280;66064;50.226;14.344;2024-03-29T03:00:20;98296.91;;;2.10;100.00
77112;BME280;66064;50.226;14.344;2024-03-29T03:02:47;98290.72;;;2.06;100.00
77112;BME280;66064;50.226;14.344;2024-03-29T03:05:13;98290.44;;;1.96;100.00
77112;BME280;66064;50.226;14.344;2024-03-29T03:07:39;98269.44;;;1.96;100.00
77112;BME280;66064;50.226;14.344;2024-03-29T03:10:23;98311.78;;;2.09;100.00
77112;BME280;66064;50.226;14.344;2024-03-29T03:13:08;98306.22;;;1.97;100.00
77112;BME280;66064;50.226;14.344;2024-03-29T03:15:34;98311.34;;;1.91;100.00
77112;BME280;66064;50.226;14.344;2024-03-29T03:18:00;98315.81;;;1.97;100.00
77112;BME280;66064;50.226;14.344;2024-03-29T03:20:26;98304.38;;;1.93;100.00
77112;BME280;66064;50.226;14.344;2024-03-29T03:22:57;98298.97;;;1.87;100.00
77112;BME280;66064;50.226;14.344;2024-03-29T03:25:27;98301.03;;;2.00;100.00
77112;BME280;66064;50.226;14.344;2024-03-29T03:27:53;98306.38;;;2.03;100.00
77112;BME280;66064;50.226;14.344;2024-03-29T03:30:19;98306.25;;;1.99;100.00
77112;BME280;66064;50.226;14.344;2024-03-29T03:32:45;98301.81;;;1.95;100.00
77112;BME280;66064;50.226;14.344;2024-03-29T03:35:11;98291.00;;;1.83;100.00
77112;BME280;66064;50.226;14.344;2024-03-29T03:37:37;98284.94;;;1.85;100.00
77112;BME280;66064;50.226;14.344;2024-03-29T03:40:03;98297.38;;;1.92;100.00
77112;BME280;66064;50.226;14.344;2024-03-29T03:42:33;98256.81;;;1.80;100.00
77112;BME280;66064;50.226;14.344;2024-03-29T03:44:59;98270.31;;;1.95;100.00
77112;BME280;66064;50.226;14.344;2024-03-29T03:47:25;98281.75;;;1.98;100.00
77112;BME280;66064;50.226;14.344;2024-03-29T03:49:50;98258.72;;;1.85;100.00
77112;BME280;66064;50.226;14.344;2024-03-29T03:52:16;98251.69;;;1.84;100.00
77112;BME280;66064;50.226;14.344;2024-03-29T03:54:42;98255.94;;;1.79;100.00
77112;BME280;66064;50.226;14.344;2024-03-29T03:57:09;98260.75;;;1.61;100.00
77112;BME280;66064;50.226;14.344;2024-03-29T03:59:34;98279.13;;;1.61;100.00
77112;BME280;66064;50.226;14.344;2024-03-29T04:02:00;98286.06;;;1.59;100.00
77112;BME280;66064;50.226;14.344;2024-03-29T04:04:26;98293.06;;;1.60;100.00
77112;BME280;66064;50.226;14.344;2024-03-29T04:06:52;98283.47;;;1.60;100.00
77112;BME280;66064;50.226;14.344;2024-03-29T04:09:18;98279.16;;;1.64;100.00
77112;BME280;66064;50.226;14.344;2024-03-29T04:11:45;98269.00;;;1.76;100.00
77112;BME280;66064;50.226;14.344;2024-03-29T04:14:11;98274.69;;;1.94;100.00
77112;BME280;66064;50.226;14.344;2024-03-29T04:16:37;98268.50;;;1.92;100.00
77112;BME280;66064;50.226;14.344;2024-03-29T04:19:02;98261.53;;;1.93;100.00
77112;BME280;66064;50.226;14.344;2024-03-29T04:21:28;98247.41;;;1.88;100.00
77112;BME280;66064;50.226;14.344;2024-03-29T04:23:54;98240.47;;;1.90;100.00
77112;BME280;66064;50.226;14.344;2024-03-29T04:26:20;98244.34;;;2.07;100.00
77112;BME280;66064;50.226;14.344;2024-03-29T04:28:46;98259.28;;;2.09;100.00
77112;BME280;66064;50.226;14.344;2024-03-29T04:31:13;98261.94;;;2.11;100.00
77112;BME280;66064;50.226;14.344;2024-03-29T04:33:39;98250.94;;;2.29;100.00
77112;BME280;66064;50.226;14.344;2024-03-29T04:36:06;98265.25;;;2.41;100.00
77112;BME280;66064;50.226;14.344;2024-03-29T04:38:32;98271.47;;;2.46;100.00
77112;BME280;66064;50.226;14.344;2024-03-29T04:40:58;98250.41;;;2.45;100.00
77112;BME280;66064;50.226;14.344;2024-03-29T04:43:28;98258.72;;;3.10;100.00
77112;BME280;66064;50.226;14.344;2024-03-29T04:46:06;98236.47;;;3.38;99.47
77112;BME280;66064;50.226;14.344;2024-03-29T04:48:36;98234.03;;;4.04;95.53
77112;BME280;66064;50.226;14.344;2024-03-29T04:51:02;98249.44;;;4.40;93.05
77112;BME280;66064;50.226;14.344;2024-03-29T04:53:28;98236.47;;;4.54;91.33
77112;BME280;66064;50.226;14.344;2024-03-29T04:55:55;98256.88;;;4.73;90.12
77112;BME280;66064;50.226;14.344;2024-03-29T04:58:24;98258.81;;;4.85;89.50
77112;BME280;66064;50.226;14.344;2024-03-29T05:00:51;98258.16;;;5.06;87.54
77112;BME280;66064;50.226;14.344;2024-03-29T05:03:18;98276.75;;;5.16;87.32
77112;BME280;66064;50.226;14.344;2024-03-29T05:05:45;98287.41;;;5.27;86.88
77112;BME280;66064;50.226;14.344;2024-03-29T05:08:12;98282.25;;;5.39;85.98
77112;BME280;66064;50.226;14.344;2024-03-29T05:10:41;98279.75;;;5.54;84.97
77112;BME280;66064;50.226;14.344;2024-03-29T05:13:08;98262.25;;;5.61;84.22
77112;BME280;66064;50.226;14.344;2024-03-29T05:15:34;98258.19;;;5.98;82.46
77112;BME280;66064;50.226;14.344;2024-03-29T05:18:00;98278.78;;;6.49;80.92
77112;BME280;66064;50.226;14.344;2024-03-29T05:20:27;98272.84;;;6.97;78.21
77112;BME280;66064;50.226;14.344;2024-03-29T05:22:53;98279.94;;;7.17;77.40
77112;BME280;66064;50.226;14.344;2024-03-29T05:25:19;98273.59;;;6.72;77.96
77112;BME280;66064;50.226;14.344;2024-03-29T05:27:45;98260.25;;;6.45;79.19
77112;BME280;66064;50.226;14.344;2024-03-29T05:30:12;98259.31;;;6.32;79.47
77112;BME280;66064;50.226;14.344;2024-03-29T05:32:39;98254.88;;;6.29;80.29
77112;BME280;66064;50.226;14.344;2024-03-29T05:35:06;98240.72;;;6.21;80.04
77112;BME280;66064;50.226;14.344;2024-03-29T05:37:36;98265.41;;;6.23;80.22
77112;BME280;66064;50.226;14.344;2024-03-29T05:40:03;98256.59;;;6.24;79.59
77112;BME280;66064;50.226;14.344;2024-03-29T05:42:32;98258.41;;;6.28;79.68
77112;BME280;66064;50.226;14.344;2024-03-29T05:45:00;98264.53;;;6.24;79.69
77112;BME280;66064;50.226;14.344;2024-03-29T05:47:26;98245.13;;;6.16;80.12
77112;BME280;66064;50.226;14.344;2024-03-29T05:49:53;98253.06;;;6.22;80.13
77112;BME280;66064;50.226;14.344;2024-03-29T05:52:20;98260.97;;;6.21;80.91
77112;BME280;66064;50.226;14.344;2024-03-29T05:54:46;98267.16;;;6.24;79.82
77112;BME280;66064;50.226;14.344;2024-03-29T05:57:13;98261.84;;;6.21;80.10
77112;BME280;66064;50.226;14.344;2024-03-29T05:59:39;98258.28;;;6.13;80.05
77112;BME280;66064;50.226;14.344;2024-03-29T06:02:06;98268.91;;;6.22;79.79
77112;BME280;66064;50.226;14.344;2024-03-29T06:04:34;98281.31;;;6.32;80.02
77112;BME280;66064;50.226;14.344;2024-03-29T06:07:05;98279.59;;;6.41;79.62
77112;BME280;66064;50.226;14.344;2024-03-29T06:09:31;98275.22;;;6.43;79.11
77112;BME280;66064;50.226;14.344;2024-03-29T06:11:59;98277.03;;;6.53;79.33
77112;BME280;66064;50.226;14.344;2024-03-29T06:14:26;98272.69;;;6.61;78.75
77112;BME280;66064;50.226;14.344;2024-03-29T06:17:11;98272.69;;;6.64;78.14
77112;BME280;66064;50.226;14.344;2024-03-29T06:19:54;98283.34;;;6.82;77.30
77112;BME280;66064;50.226;14.344;2024-03-29T06:22:25;98286.94;;;6.93;76.94
77112;BME280;66064;50.226;14.344;2024-03-29T06:24:51;98298.38;;;6.91;76.98
77112;BME280;66064;50.226;14.344;2024-03-29T06:27:20;98291.38;;;7.03;75.90
77112;BME280;66064;50.226;14.344;2024-03-29T06:29:52;98298.56;;;7.44;74.46
77112;BME280;66064;50.226;14.344;2024-03-29T06:32:18;98326.03;;;7.95;72.12
77112;BME280;66064;50.226;14.344;2024-03-29T06:34:45;98320.72;;;8.25;70.94
77112;BME280;66064;50.226;14.344;2024-03-29T06:37:12;98327.78;;;8.31;69.74
77112;BME280;66064;50.226;14.344;2024-03-29T06:39:38;98340.00;;;9.09;67.88
77112;BME280;66064;50.226;14.344;2024-03-29T06:42:04;98365.38;;;9.76;65.62
77112;BME280;66064;50.226;14.344;2024-03-29T06:44:33;98390.53;;;10.59;63.21
77112;BME280;66064;50.226;14.344;2024-03-29T06:46:59;98389.31;;;10.94;61.53
77112;BME280;66064;50.226;14.344;2024-03-29T06:49:25;98407.56;;;11.33;60.65
77112;BME280;66064;50.226;14.344;2024-03-29T06:51:52;98429.72;;;12.09;58.10
77112;BME280;66064;50.226;14.344;2024-03-29T06:54:21;98447.25;;;12.83;55.49
77112;BME280;66064;50.226;14.344;2024-03-29T06:56:50;98470.97;;;13.98;53.18
77112;BME280;66064;50.226;14.344;2024-03-29T06:59:16;98464.16;;;13.38;52.78
77112;BME280;66064;50.226;14.344;2024-03-29T07:01:42;98458.66;;;13.91;51.47
77112;BME280;66064;50.226;14.344;2024-03-29T07:04:09;98438.41;;;14.20;50.43
77112;BME280;66064;50.226;14.344;2024-03-29T07:06:35;98458.06;;;14.96;48.23
77112;BME280;66064;50.226;14.344;2024-03-29T07:09:04;98488.94;;;16.11;45.91
77112;BME280;66064;50.226;14.344;2024-03-29T07:11:32;98499.13;;;16.59;45.06
77112;BME280;66064;50.226;14.344;2024-03-29T07:13:58;98491.84;;;17.20;43.50
77112;BME280;66064;50.226;14.344;2024-03-29T07:16:24;98492.34;;;17.83;43.16
77112;BME280;66064;50.226;14.344;2024-03-29T07:18:50;98511.50;;;17.99;41.54
77112;BME280;66064;50.226;14.344;2024-03-29T07:21:16;98512.06;;;17.84;41.91
77112;BME280;66064;50.226;14.344;2024-03-29T07:23:43;98506.13;;;17.99;41.85
77112;BME280;66064;50.226;14.344;2024-03-29T07:26:09;98524.41;;;19.51;38.57
77112;BME280;66064;50.226;14.344;2024-03-29T07:28:35;98518.44;;;18.30;40.36
77112;BME280;66064;50.226;14.344;2024-03-29T07:31:06;98502.78;;;18.64;39.79
77112;BME280;66064;50.226;14.344;2024-03-29T07:33:33;98519.56;;;19.16;38.59
77112;BME280;66064;50.226;14.344;2024-03-29T07:35:59;98504.28;;;18.48;39.15
77112;BME280;66064;50.226;14.344;2024-03-29T07:38:26;98504.00;;;19.44;38.04
77112;BME280;66064;50.226;14.344;2024-03-29T07:40:52;98503.88;;;18.82;39.44
77112;BME280;66064;50.226;14.344;2024-03-29T07:43:19;98513.47;;;19.76;36.64
77112;BME280;66064;50.226;14.344;2024-03-29T07:45:45;98508.16;;;19.31;37.51
77112;BME280;66064;50.226;14.344;2024-03-29T07:48:13;98494.97;;;19.23;38.28
77112;BME280;66064;50.226;14.344;2024-03-29T07:50:40;98487.56;;;19.50;37.03
77112;BME280;66064;50.226;14.344;2024-03-29T07:53:06;98492.75;;;20.75;34.67
77112;BME280;66064;50.226;14.344;2024-03-29T07:55:35;98499.63;;;21.37;34.25
77112;BME280;66064;50.226;14.344;2024-03-29T07:58:02;98493.09;;;19.47;35.87
77112;BME280;66064;50.226;14.344;2024-03-29T08:00:33;98438.22;;;16.59;40.97
77112;BME280;66064;50.226;14.344;2024-03-29T08:03:00;98413.63;;;14.87;44.40
77112;BME280;66064;50.226;14.344;2024-03-29T08:05:28;98390.69;;;14.00;46.23
77112;BME280;66064;50.226;14.344;2024-03-29T08:07:55;98384.53;;;13.55;47.57
77112;BME280;66064;50.226;14.344;2024-03-29T08:10:21;98372.69;;;13.23;47.52
77112;BME280;66064;50.226;14.344;2024-03-29T08:12:48;98384.94;;;13.34;48.20
77112;BME280;66064;50.226;14.344;2024-03-29T08:15:14;98379.63;;;13.32;47.95
77112;BME280;66064;50.226;14.344;2024-03-29T08:17:41;98391.78;;;14.30;45.78
77112;BME280;66064;50.226;14.344;2024-03-29T08:20:07;98405.22;;;14.67;44.69
77112;BME280;66064;50.226;14.344;2024-03-29T08:22:34;98426.31;;;15.15;43.80
77112;BME280;66064;50.226;14.344;2024-03-29T08:25:05;98431.66;;;15.81;41.64
77112;BME280;66064;50.226;14.344;2024-03-29T08:27:32;98443.16;;;16.45;40.61
77112;BME280;66064;50.226;14.344;2024-03-29T08:29:59;98438.19;;;15.72;42.26
77112;BME280;66064;50.226;14.344;2024-03-29T08:32:26;98442.56;;;16.65;40.95
77112;BME280;66064;50.226;14.344;2024-03-29T08:34:51;98452.22;;;16.41;40.78
77112;BME280;66064;50.226;14.344;2024-03-29T08:37:18;98468.00;;;16.53;39.84
77112;BME280;66064;50.226;14.344;2024-03-29T08:39:44;98469.63;;;16.57;39.84
77112;BME280;66064;50.226;14.344;2024-03-29T08:42:13;98458.06;;;17.11;40.14
77112;BME280;66064;50.226;14.344;2024-03-29T08:44:41;98489.81;;;19.39;35.65
77112;BME280;66064;50.226;14.344;2024-03-29T08:47:08;98501.00;;;19.30;35.30
77112;BME280;66064;50.226;14.344;2024-03-29T08:49:39;98519.25;;;20.67;32.72
77112;BME280;66064;50.226;14.344;2024-03-29T08:52:07;98521.75;;;20.12;33.71
77112;BME280;66064;50.226;14.344;2024-03-29T08:54:39;98504.69;;;18.84;34.88
77112;BME280;66064;50.226;14.344;2024-03-29T08:57:07;98514.22;;;19.80;32.96
77112;BME280;66064;50.226;14.344;2024-03-29T08:59:33;98351.19;;;20.76;31.86
77112;BME280;66064;50.226;14.344;2024-03-29T09:02:05;98313.25;;;19.85;33.39
77112;BME280;66064;50.226;14.344;2024-03-29T09:04:33;98282.59;;;20.05;33.44
77112;BME280;66064;50.226;14.344;2024-03-29T09:07:02;98285.63;;;20.35;32.51
77112;BME280;66064;50.226;14.344;2024-03-29T09:09:30;98279.03;;;19.86;33.14
77112;BME280;66064;50.226;14.344;2024-03-29T09:11:57;98245.38;;;19.35;33.77
77112;BME280;66064;50.226;14.344;2024-03-29T09:14:23;98257.69;;;20.17;32.83
77112;BME280;66064;50.226;14.344;2024-03-29T09:16:50;98256.38;;;20.26;32.33
77112;BME280;66064;50.226;14.344;2024-03-29T09:19:17;98241.06;;;21.47;31.91
77112;BME280;66064;50.226;14.344;2024-03-29T09:21:43;98231.28;;;22.09;30.34
77112;BME280;66064;50.226;14.344;2024-03-29T09:24:12;98219.97;;;21.70;29.89
77112;BME280;66064;50.226;14.344;2024-03-29T09:26:38;98212.34;;;23.43;28.81
77112;BME280;66064;50.226;14.344;2024-03-29T09:29:06;98208.66;;;23.44;28.11
77112;BME280;66064;50.226;14.344;2024-03-29T09:31:32;98219.09;;;24.07;27.06
77112;BME280;66064;50.226;14.344;2024-03-29T09:33:58;98207.97;;;22.52;28.45
77112;BME280;66064;50.226;14.344;2024-03-29T09:36:25;98207.47;;;21.83;28.95
77112;BME280;66064;50.226;14.344;2024-03-29T09:38:51;98191.59;;;21.28;29.51
77112;BME280;66064;50.226;14.344;2024-03-29T09:41:18;98195.63;;;22.01;28.74
77112;BME280;66064;50.226;14.344;2024-03-29T09:43:46;98177.94;;;21.78;28.65
77112;BME280;66064;50.226;14.344;2024-03-29T09:46:14;98167.56;;;22.48;27.60
77112;BME280;66064;50.226;14.344;2024-03-29T09:48:41;98148.66;;;22.76;27.22
77112;BME280;66064;50.226;14.344;2024-03-29T09:51:09;98136.50;;;23.40;25.46
77112;BME280;66064;50.226;14.344;2024-03-29T09:53:36;98135.31;;;24.40;24.33
77112;BME280;66064;50.226;14.344;2024-03-29T09:56:07;98132.34;;;23.63;24.47
77112;BME280;66064;50.226;14.344;2024-03-29T09:58:34;98118.94;;;24.80;22.70
77112;BME280;66064;50.226;14.344;2024-03-29T10:01:02;98127.13;;;24.80;23.01
77112;BME280;66064;50.226;14.344;2024-03-29T10:03:29;98127.03;;;25.32;22.33
77112;BME280;66064;50.226;14.344;2024-03-29T10:05:57;98107.41;;;25.40;22.12
77112;BME280;66064;50.226;14.344;2024-03-29T10:08:27;98123.44;;;25.06;22.86
77112;BME280;66064;50.226;14.344;2024-03-29T10:10:54;98100.72;;;26.17;21.62
77112;BME280;66064;50.226;14.344;2024-03-29T10:13:20;98107.50;;;24.75;21.60
77112;BME280;66064;50.226;14.344;2024-03-29T10:15:52;98097.78;;;24.46;22.63
77112;BME280;66064;50.226;14.344;2024-03-29T10:18:27;98109.81;;;25.19;21.89
77112;BME280;66064;50.226;14.344;2024-03-29T10:21:04;98115.88;;;25.97;21.37
77112;BME280;66064;50.226;14.344;2024-03-29T10:23:31;98110.75;;;26.29;21.86
77112;BME280;66064;50.226;14.344;2024-03-29T10:25:58;98101.31;;;26.33;21.90
77112;BME280;66064;50.226;14.344;2024-03-29T10:28:31;98092.34;;;26.44;22.16
77112;BME280;66064;50.226;14.344;2024-03-29T10:31:01;98094.06;;;26.21;21.73
77112;BME280;66064;50.226;14.344;2024-03-29T10:33:30;98067.03;;;26.99;22.21
77112;BME280;66064;50.226;14.344;2024-03-29T10:35:58;98077.91;;;26.77;20.92
77112;BME280;66064;50.226;14.344;2024-03-29T10:38:26;98083.56;;;27.09;20.72
77112;BME280;66064;50.226;14.344;2024-03-29T10:40:53;98072.94;;;26.71;21.33
77112;BME280;66064;50.226;14.344;2024-03-29T10:43:20;98084.56;;;25.30;21.94
77112;BME280;66064;50.226;14.344;2024-03-29T10:45:47;98068.09;;;25.31;22.94
77112;BME280;66064;50.226;14.344;2024-03-29T10:48:15;98057.91;;;23.53;23.95
77112;BME280;66064;50.226;14.344;2024-03-29T10:50:42;98064.75;;;22.73;24.80
77112;BME280;66064;50.226;14.344;2024-03-29T10:53:09;98053.63;;;22.05;25.23
77112;BME280;66064;50.226;14.344;2024-03-29T10:55:40;98065.41;;;21.43;26.13
77112;BME280;66064;50.226;14.344;2024-03-29T10:58:10;98057.66;;;21.04;27.05
77112;BME280;66064;50.226;14.344;2024-03-29T11:00:47;98048.50;;;20.90;26.72
77112;BME280;66064;50.226;14.344;2024-03-29T11:03:23;98052.97;;;20.58;27.13
77112;BME280;66064;50.226;14.344;2024-03-29T11:05:55;98030.56;;;20.22;27.30
77112;BME280;66064;50.226;14.344;2024-03-29T11:08:27;98033.44;;;20.69;27.00
77112;BME280;66064;50.226;14.344;2024-03-29T11:10:58;98027.91;;;20.88;27.21
77112;BME280;66064;50.226;14.344;2024-03-29T11:13:53;98033.03;;;20.44;27.13
77112;BME280;66064;50.226;14.344;2024-03-29T11:16:22;98031.16;;;21.10;26.97
77112;BME280;66064;50.226;14.344;2024-03-29T11:18:50;98040.81;;;20.99;26.88
77112;BME280;66064;50.226;14.344;2024-03-29T11:21:18;98039.72;;;20.70;25.55
77112;BME280;66064;50.226;14.344;2024-03-29T11:23:49;98041.59;;;21.01;25.88
77112;BME280;66064;50.226;14.344;2024-03-29T11:26:17;98040.50;;;20.72;26.54
77112;BME280;66064;50.226;14.344;2024-03-29T11:28:51;98048.97;;;21.30;25.56
77112;BME280;66064;50.226;14.344;2024-03-29T11:31:22;98055.00;;;21.35;25.99
77112;BME280;66064;50.226;14.344;2024-03-29T11:33:50;98056.56;;;21.55;25.57
77112;BME280;66064;50.226;14.344;2024-03-29T11:36:18;98057.84;;;21.16;26.47
77112;BME280;66064;50.226;14.344;2024-03-29T11:38:45;98062.41;;;20.83;27.17
77112;BME280;66064;50.226;14.344;2024-03-29T11:41:14;98059.84;;;20.64;26.87
77112;BME280;66064;50.226;14.344;2024-03-29T11:43:41;98048.75;;;20.18;27.22
77112;BME280;66064;50.226;14.344;2024-03-29T11:46:11;98036.66;;;20.60;26.91
77112;BME280;66064;50.226;14.344;2024-03-29T11:48:38;98041.84;;;20.96;27.29
77112;BME280;66064;50.226;14.344;2024-03-29T11:51:06;98053.22;;;20.37;27.22
77112;BME280;66064;50.226;14.344;2024-03-29T11:53:35;98040.09;;;20.29;27.60
77112;BME280;66064;50.226;14.344;2024-03-29T11:56:03;98032.53;;;20.18;28.62
77112;BME280;66064;50.226;14.344;2024-03-29T11:58:32;98034.06;;;20.41;28.29
77112;BME280;66064;50.226;14.344;2024-03-29T12:00:59;98041.75;;;20.49;27.59
77112;BME280;66064;50.226;14.344;2024-03-29T12:03:29;98048.47;;;20.42;27.50
77112;BME280;66064;50.226;14.344;2024-03-29T12:05:57;98056.69;;;20.21;28.30
77112;BME280;66064;50.226;14.344;2024-03-29T12:08:33;98067.34;;;20.07;27.60
77112;BME280;66064;50.226;14.344;2024-03-29T12:11:01;98051.38;;;20.03;28.73
77112;BME280;66064;50.226;14.344;2024-03-29T12:13:28;98076.31;;;19.90;28.70
77112;BME280;66064;50.226;14.344;2024-03-29T12:15:55;98090.47;;;19.96;28.97
77112;BME280;66064;50.226;14.344;2024-03-29T12:18:23;98097.38;;;19.65;29.94
77112;BME280;66064;50.226;14.344;2024-03-29T12:20:51;98097.25;;;19.49;30.76
77112;BME280;66064;50.226;14.344;2024-03-29T12:23:18;98096.66;;;19.43;30.40
77112;BME280;66064;50.226;14.344;2024-03-29T12:25:46;98090.34;;;19.25;30.83
77112;BME280;66064;50.226;14.344;2024-03-29T12:28:14;98088.34;;;19.47;30.40
77112;BME280;66064;50.226;14.344;2024-03-29T12:30:44;98082.50;;;19.75;30.76
77112;BME280;66064;50.226;14.344;2024-03-29T12:33:18;98082.88;;;19.85;30.60
77112;BME280;66064;50.226;14.344;2024-03-29T12:35:47;98066.72;;;20.19;30.45
77112;BME280;66064;50.226;14.344;2024-03-29T12:38:16;98058.47;;;20.40;30.54
77112;BME280;66064;50.226;14.344;2024-03-29T12:40:45;98055.13;;;21.16;29.96
77112;BME280;66064;50.226;14.344;2024-03-29T12:43:15;98044.59;;;21.27;29.20
77112;BME280;66064;50.226;14.344;2024-03-29T12:45:43;98042.84;;;21.74;29.31
77112;BME280;66064;50.226;14.344;2024-03-29T12:48:20;98035.59;;;21.74;28.96
77112;BME280;66064;50.226;14.344;2024-03-29T12:50:49;98038.66;;;21.98;29.51
77112;BME280;66064;50.226;14.344;2024-03-29T12:53:16;98040.75;;;21.93;28.96
77112;BME280;66064;50.226;14.344;2024-03-29T12:55:44;98051.81;;;21.90;28.55